createdAt,value
2018-06-01T00:02:19.736Z,101808.22
2018-06-01T00:04:47.311Z,101703.63
2018-06-01T00:07:14.898Z,101795.91
2018-06-01T00:09:42.461Z,101794.09
2018-06-01T00:12:10.075Z,101787.70
2018-06-01T00:14:37.654Z,101792.70
2018-06-01T00:17:05.244Z,101787.52
2018-06-01T00:19:32.822Z,101787.84
2018-06-01T00:22:00.402Z,101788.03
2018-06-01T00:24:27.966Z,101781.47
2018-06-01T00:26:55.550Z,101780.05
2018-06-01T00:29:23.120Z,101773.61
2018-06-01T00:31:50.703Z,101769.00
2018-06-01T00:34:18.297Z,101770.06
2018-06-01T00:36:45.874Z,101771.97
2018-06-01T00:39:13.431Z,101766.06
2018-06-01T00:41:41.063Z,101764.05
2018-06-01T00:44:08.630Z,101770.72
2018-06-01T00:46:36.212Z,101773.45
2018-06-01T00:49:03.833Z,101768.87
2018-06-01T00:51:31.390Z,101768.75
2018-06-01T00:53:58.954Z,101735.36
2018-06-01T00:56:26.617Z,101751.96
2018-06-01T00:58:54.253Z,101753.80
2018-06-01T01:01:21.841Z,101740.84
2018-06-01T01:03:49.419Z,101743.44
2018-06-01T01:06:16.999Z,101741.66
2018-06-01T01:08:44.575Z,101735.48
2018-06-01T01:11:12.157Z,101729.83
2018-06-01T01:13:39.714Z,101723.16
2018-06-01T01:16:07.327Z,101727.14
2018-06-01T01:18:34.925Z,101725.84
2018-06-01T01:21:02.532Z,101712.91
2018-06-01T01:23:30.110Z,101721.12
2018-06-01T01:25:57.734Z,101716.30
2018-06-01T01:28:25.320Z,101714.89
2018-06-01T01:30:52.927Z,101708.84
2018-06-01T01:33:20.523Z,101711.72
2018-06-01T01:35:48.121Z,101714.39
2018-06-01T01:38:15.732Z,101714.27
2018-06-01T01:40:43.548Z,101708.41
2018-06-01T01:43:11.121Z,101707.63
2018-06-01T01:45:39.222Z,101708.33
2018-06-01T01:48:07.071Z,101708.63
2018-06-01T01:50:34.678Z,101704.78
2018-06-01T01:53:02.237Z,101705.86
2018-06-01T01:55:30.158Z,101702.00
2018-06-01T01:57:58.706Z,101697.60
2018-06-01T02:00:26.290Z,101696.54
2018-06-01T02:02:53.880Z,101693.45
2018-06-01T02:05:22.361Z,101693.77
2018-06-01T02:07:49.945Z,101701.66
2018-06-01T02:10:17.585Z,101695.32
2018-06-01T02:12:45.239Z,101704.27
2018-06-01T02:15:12.844Z,101694.30
2018-06-01T02:17:40.827Z,101691.17
2018-06-01T02:20:09.658Z,101687.50
2018-06-01T02:22:37.237Z,101684.33
2018-06-01T02:25:04.814Z,101666.41
2018-06-01T02:27:32.395Z,101667.62
2018-06-01T02:29:59.959Z,101666.44
2018-06-01T02:32:27.535Z,101656.95
2018-06-01T02:34:55.129Z,101652.14
2018-06-01T02:37:22.703Z,101661.75
2018-06-01T02:39:50.293Z,101670.93
2018-06-01T02:42:18.623Z,101668.17
2018-06-01T02:44:48.239Z,101556.58
2018-06-01T02:47:16.073Z,101663.34
2018-06-01T02:49:43.655Z,101666.98
2018-06-01T02:52:13.348Z,101669.59
2018-06-01T02:54:41.087Z,101696.03
2018-06-01T02:57:08.690Z,101692.98
2018-06-01T02:59:36.269Z,101684.03
2018-06-01T03:02:05.072Z,101458.20
2018-06-01T03:04:32.669Z,101677.71
2018-06-01T03:07:18.900Z,101670.22
2018-06-01T03:09:47.321Z,101666.06
2018-06-01T03:12:14.902Z,101680.13
2018-06-01T03:14:42.490Z,101675.19
2018-06-01T03:17:10.062Z,101676.08
2018-06-01T03:19:37.634Z,101650.83
2018-06-01T03:22:05.193Z,101664.46
2018-06-01T03:24:32.758Z,101670.48
2018-06-01T03:27:00.319Z,101672.97
2018-06-01T03:29:27.897Z,101664.61
2018-06-01T03:31:55.477Z,101669.05
2018-06-01T03:34:23.093Z,101665.14
2018-06-01T03:36:50.681Z,101651.33
2018-06-01T03:39:18.257Z,101647.19
2018-06-01T03:41:45.834Z,101658.58
2018-06-01T03:44:13.401Z,101670.42
2018-06-01T03:46:40.974Z,101671.53
2018-06-01T03:49:08.546Z,101673.83
2018-06-01T03:51:36.146Z,101682.41
2018-06-01T03:54:03.781Z,101679.83
2018-06-01T03:56:31.352Z,101672.59
2018-06-01T03:58:58.954Z,101667.67
2018-06-01T04:01:27.716Z,101679.96
2018-06-01T04:03:55.294Z,101680.56
2018-06-01T04:06:22.902Z,101678.73
2018-06-01T04:08:50.486Z,101681.09
2018-06-01T04:11:18.299Z,101673.50
2018-06-01T04:13:46.057Z,101674.37
2018-06-01T04:16:13.645Z,101677.66
2018-06-01T04:18:42.374Z,101598.83
2018-06-01T04:21:10.102Z,101676.70
2018-06-01T04:23:37.691Z,101668.86
2018-06-01T04:26:05.306Z,101672.42
2018-06-01T04:28:32.869Z,101667.86
2018-06-01T04:31:00.452Z,101662.96
2018-06-01T04:33:28.064Z,101665.62
2018-06-01T04:35:55.641Z,101669.69
2018-06-01T04:38:23.252Z,101676.56
2018-06-01T04:40:50.842Z,101676.81
2018-06-01T04:43:18.463Z,101680.37
2018-06-01T04:45:46.074Z,101678.88
2018-06-01T04:48:13.674Z,101677.67
2018-06-01T04:50:41.285Z,101687.37
2018-06-01T04:53:08.887Z,101682.56
2018-06-01T04:55:36.470Z,101685.88
2018-06-01T04:58:04.058Z,101692.10
2018-06-01T05:00:31.641Z,101688.13
2018-06-01T05:02:59.227Z,101697.38
2018-06-01T05:05:26.838Z,101676.55
2018-06-01T05:07:54.431Z,101689.73
2018-06-01T05:10:22.021Z,101666.45
2018-06-01T05:12:49.613Z,101652.77
2018-06-01T05:15:17.247Z,101632.83
2018-06-01T05:17:44.850Z,101644.73
2018-06-01T05:20:12.647Z,101660.98
2018-06-01T05:22:40.223Z,101675.13
2018-06-01T05:25:07.792Z,101678.84
2018-06-01T05:27:35.366Z,101669.23
2018-06-01T05:30:02.970Z,101686.16
2018-06-01T05:32:30.570Z,101685.56
2018-06-01T05:34:58.535Z,101685.67
2018-06-01T05:37:26.143Z,101699.15
2018-06-01T05:39:53.738Z,101705.31
2018-06-01T05:42:21.343Z,101701.75
2018-06-01T05:44:49.028Z,101686.59
2018-06-01T05:47:16.616Z,101682.48
2018-06-01T05:49:44.198Z,101664.86
2018-06-01T05:52:11.778Z,101676.95
2018-06-01T05:54:39.338Z,101665.44
2018-06-01T05:57:07.061Z,101658.28
2018-06-01T05:59:34.650Z,101658.08
2018-06-01T06:02:02.245Z,101671.60
2018-06-01T06:04:29.927Z,101675.41
2018-06-01T06:06:57.470Z,101670.91
2018-06-01T06:09:25.101Z,101670.47
2018-06-01T06:11:52.711Z,101663.98
2018-06-01T06:14:20.269Z,101669.95
2018-06-01T06:16:47.850Z,101672.59
2018-06-01T06:19:15.439Z,101667.81
2018-06-01T06:21:43.023Z,101656.97
2018-06-01T06:24:10.628Z,101666.66
2018-06-01T06:26:38.224Z,101672.70
2018-06-01T06:29:05.799Z,101670.64
2018-06-01T06:31:33.428Z,101673.86
2018-06-01T06:34:01.016Z,101664.27
2018-06-01T06:36:28.590Z,101666.70
2018-06-01T06:38:56.149Z,101665.43
2018-06-01T06:41:23.761Z,101663.00
2018-06-01T06:43:51.362Z,101669.38
2018-06-01T06:46:18.946Z,101673.01
2018-06-01T06:48:46.546Z,101671.88
2018-06-01T06:51:14.122Z,101630.56
2018-06-01T06:53:41.687Z,101660.75
2018-06-01T06:56:09.269Z,101663.64
2018-06-01T06:58:36.848Z,101664.28
2018-06-01T07:01:04.454Z,101669.58
2018-06-01T07:03:32.042Z,101662.98
2018-06-01T07:05:59.606Z,101668.91
2018-06-01T07:08:27.176Z,101659.25
2018-06-01T07:10:54.777Z,101669.33
2018-06-01T07:13:22.342Z,101664.97
2018-06-01T07:15:49.919Z,101657.41
2018-06-01T07:18:17.562Z,101675.10
2018-06-01T07:20:45.110Z,101673.20
2018-06-01T07:23:12.686Z,101670.60
2018-06-01T07:25:40.310Z,101671.31
2018-06-01T07:28:07.882Z,101662.12
2018-06-01T07:30:35.450Z,101656.40
2018-06-01T07:33:03.062Z,101646.06
2018-06-01T07:35:30.943Z,101645.81
2018-06-01T07:37:58.517Z,101648.72
2018-06-01T07:40:26.120Z,101649.05
2018-06-01T07:42:53.713Z,101637.91
2018-06-01T07:45:21.295Z,101645.53
2018-06-01T07:47:48.886Z,101636.74
2018-06-01T07:50:16.477Z,101636.78
2018-06-01T07:52:44.050Z,101633.16
2018-06-01T07:55:11.642Z,101628.78
2018-06-01T07:57:39.210Z,101625.40
2018-06-01T08:00:06.784Z,101627.81
2018-06-01T08:02:34.358Z,101635.57
2018-06-01T08:05:01.964Z,101645.70
2018-06-01T08:07:29.545Z,101648.73
2018-06-01T08:09:57.149Z,101650.72
2018-06-01T08:12:24.718Z,101655.67
2018-06-01T08:14:52.288Z,101654.01
2018-06-01T08:17:20.098Z,101666.75
2018-06-01T08:19:47.674Z,101667.24
2018-06-01T08:22:15.255Z,101673.22
2018-06-01T08:24:42.821Z,101682.55
2018-06-01T08:27:10.630Z,101675.09
2018-06-01T08:29:38.203Z,101677.69
2018-06-01T08:32:05.836Z,101685.83
2018-06-01T08:34:33.422Z,101677.47
2018-06-01T08:37:00.991Z,101670.59
2018-06-01T08:39:28.607Z,101667.65
2018-06-01T08:41:56.178Z,101663.94
2018-06-01T08:44:23.759Z,101650.86
2018-06-01T08:46:51.498Z,101647.13
2018-06-01T08:49:19.155Z,101637.89
2018-06-01T08:51:46.742Z,101649.14
2018-06-01T08:54:14.314Z,101634.05
2018-06-01T08:56:41.887Z,101623.45
2018-06-01T08:59:09.517Z,101637.52
2018-06-01T09:01:37.066Z,101641.55
2018-06-01T09:04:04.668Z,101647.22
2018-06-01T09:06:32.258Z,101653.65
2018-06-01T09:08:59.906Z,101657.52
2018-06-01T09:11:27.467Z,101661.41
2018-06-01T09:13:55.026Z,101665.61
2018-06-01T09:16:22.677Z,101670.22
2018-06-01T09:18:50.248Z,101666.20
2018-06-01T09:21:17.822Z,101659.03
2018-06-01T09:23:45.409Z,101661.27
2018-06-01T09:26:12.989Z,101648.27
2018-06-01T09:28:40.568Z,101643.58
2018-06-01T09:31:08.178Z,101648.67
2018-06-01T09:33:35.776Z,101651.91
2018-06-01T09:36:03.654Z,101646.95
2018-06-01T09:38:31.257Z,101648.03
2018-06-01T09:40:58.834Z,101658.73
2018-06-01T09:43:26.395Z,101645.30
2018-06-01T09:45:53.969Z,101648.64
2018-06-01T09:48:21.534Z,101648.36
2018-06-01T09:50:49.111Z,101641.69
2018-06-01T09:53:16.683Z,101641.11
2018-06-01T09:55:44.287Z,101639.36
2018-06-01T09:58:11.870Z,101632.53
2018-06-01T10:00:45.076Z,101627.66
2018-06-01T10:03:12.650Z,101615.78
2018-06-01T10:05:40.224Z,101604.59
2018-06-01T10:08:07.805Z,101605.94
2018-06-01T10:10:36.319Z,101594.05
2018-06-01T10:13:03.919Z,101587.76
2018-06-01T10:15:31.536Z,101584.20
2018-06-01T10:17:59.098Z,101588.90
2018-06-01T10:20:26.666Z,101578.36
2018-06-01T10:22:56.014Z,101582.04
2018-06-01T10:25:23.594Z,101575.88
2018-06-01T10:27:51.175Z,101565.47
2018-06-01T10:30:18.734Z,101566.37
2018-06-01T10:32:46.300Z,101561.85
2018-06-01T10:35:13.877Z,101560.92
2018-06-01T10:37:41.444Z,101561.33
2018-06-01T10:40:09.012Z,101557.39
2018-06-01T10:42:36.576Z,101554.58
2018-06-01T10:45:04.191Z,101560.66
2018-06-01T10:47:31.764Z,101576.66
2018-06-01T10:49:59.332Z,101571.43
2018-06-01T10:52:26.938Z,101571.09
2018-06-01T10:54:54.504Z,101570.88
2018-06-01T10:57:22.070Z,101572.66
2018-06-01T10:59:49.646Z,101569.61
2018-06-01T11:02:17.218Z,101566.59
2018-06-01T11:04:44.778Z,101564.78
2018-06-01T11:07:12.366Z,101553.77
2018-06-01T11:09:39.937Z,101561.63
2018-06-01T11:12:07.515Z,101546.35
2018-06-01T11:14:35.087Z,101547.64
2018-06-01T11:17:02.650Z,101546.75
2018-06-01T11:19:30.218Z,101545.91
2018-06-01T11:21:57.809Z,101541.50
2018-06-01T11:24:25.367Z,101531.87
2018-06-01T11:26:52.935Z,101533.91
2018-06-01T11:29:20.545Z,101538.44
2018-06-01T11:31:48.130Z,101527.20
2018-06-01T11:34:15.703Z,101535.16
2018-06-01T11:36:43.338Z,101541.19
2018-06-01T11:39:10.957Z,101541.27
2018-06-01T11:41:38.527Z,101530.97
2018-06-01T11:44:06.148Z,101529.53
2018-06-01T11:46:33.764Z,101523.48
2018-06-01T11:49:01.325Z,101525.17
2018-06-01T11:51:28.966Z,101530.31
2018-06-01T11:53:56.548Z,101525.84
2018-06-01T11:56:24.114Z,101516.34
2018-06-01T11:58:51.854Z,101520.19
2018-06-01T12:01:19.423Z,101522.02
2018-06-01T12:03:46.989Z,101531.66
2018-06-01T12:06:14.781Z,101524.36
2018-06-01T12:08:42.582Z,101528.34
2018-06-01T12:11:10.175Z,101526.80
2018-06-01T12:13:37.755Z,101501.75
2018-06-01T12:16:05.321Z,101525.65
2018-06-01T12:18:33.032Z,101515.37
2018-06-01T12:21:00.757Z,101512.98
2018-06-01T12:23:28.406Z,101504.80
2018-06-01T12:25:56.067Z,101510.38
2018-06-01T12:28:23.647Z,101508.44
2018-06-01T12:30:51.225Z,101508.14
2018-06-01T12:33:18.938Z,101506.34
2018-06-01T12:35:47.480Z,101504.05
2018-06-01T12:38:15.083Z,101497.81
2018-06-01T12:40:42.682Z,101498.68
2018-06-01T12:43:10.250Z,101498.02
2018-06-01T12:45:37.956Z,101492.66
2018-06-01T12:48:05.583Z,101485.84
2018-06-01T12:50:33.162Z,101492.37
2018-06-01T12:53:00.853Z,101461.61
2018-06-01T12:55:28.723Z,101483.97
2018-06-01T12:57:56.367Z,101480.27
2018-06-01T13:00:24.005Z,101481.78
2018-06-01T13:02:51.616Z,101475.88
2018-06-01T13:05:19.527Z,101392.91
2018-06-01T13:07:47.108Z,101465.55
2018-06-01T13:10:14.684Z,101466.72
2018-06-01T13:12:42.263Z,101462.33
2018-06-01T13:15:10.219Z,101467.16
2018-06-01T13:17:38.038Z,101462.91
2018-06-01T13:20:05.686Z,101447.92
2018-06-01T13:22:33.269Z,101447.05
2018-06-01T13:25:00.838Z,101440.31
2018-06-01T13:27:28.495Z,101443.20
2018-06-01T13:29:56.154Z,101439.61
2018-06-01T13:32:23.732Z,101435.72
2018-06-01T13:34:51.306Z,101432.88
2018-06-01T13:37:18.902Z,101431.17
2018-06-01T13:39:46.491Z,101426.80
2018-06-01T13:42:14.231Z,101414.76
2018-06-01T13:44:41.848Z,101417.55
2018-06-01T13:47:09.440Z,101409.13
2018-06-01T13:49:37.137Z,101411.84
2018-06-01T13:52:04.725Z,101400.94
2018-06-01T13:54:32.364Z,101393.68
2018-06-01T13:56:59.955Z,101405.30
2018-06-01T13:59:27.542Z,101398.28
2018-06-01T14:01:55.202Z,101393.65
2018-06-01T14:04:22.815Z,101394.61
2018-06-01T14:06:51.961Z,101403.34
2018-06-01T14:09:20.247Z,101395.12
2018-06-01T14:11:47.800Z,101405.22
2018-06-01T14:14:15.374Z,101406.34
2018-06-01T14:16:42.945Z,101405.64
2018-06-01T14:19:10.625Z,101415.63
2018-06-01T14:21:38.234Z,101415.43
2018-06-01T14:24:05.903Z,101395.28
2018-06-01T14:26:34.259Z,101411.66
2018-06-01T14:29:01.844Z,101406.50
2018-06-01T14:31:29.490Z,101406.56
2018-06-01T14:33:57.086Z,101403.53
2018-06-01T14:36:24.654Z,101397.52
2018-06-01T14:38:52.230Z,101395.27
2018-06-01T14:41:19.834Z,101394.90
2018-06-01T14:43:47.402Z,101392.48
2018-06-01T14:46:14.974Z,101393.00
2018-06-01T14:48:42.576Z,101385.32
2018-06-01T14:51:10.296Z,101383.97
2018-06-01T14:53:37.865Z,101382.16
2018-06-01T14:56:05.648Z,101393.12
2018-06-01T14:58:33.278Z,101384.04
2018-06-01T15:01:00.965Z,101386.66
2018-06-01T15:03:29.714Z,101368.09
2018-06-01T15:05:57.306Z,101375.44
2018-06-01T15:08:25.051Z,101378.06
2018-06-01T15:10:52.682Z,101386.92
2018-06-01T15:13:20.253Z,101380.92
2018-06-01T15:15:47.903Z,101379.92
2018-06-01T15:18:16.477Z,101369.95
2018-06-01T15:20:44.212Z,101365.83
2018-06-01T15:23:12.050Z,101375.13
2018-06-01T15:25:39.651Z,101373.33
2018-06-01T15:28:07.866Z,101350.05
2018-06-01T15:30:35.544Z,101362.14
2018-06-01T15:33:03.322Z,101375.87
2018-06-01T15:35:30.910Z,101364.12
2018-06-01T15:37:58.552Z,101364.22
2018-06-01T15:40:26.138Z,101361.27
2018-06-01T15:42:53.736Z,101362.69
2018-06-01T15:45:21.317Z,101363.13
2018-06-01T15:47:48.894Z,101353.75
2018-06-01T15:50:16.532Z,101370.45
2018-06-01T15:52:44.116Z,101367.56
2018-06-01T15:55:11.704Z,101372.73
2018-06-01T15:57:39.280Z,101368.45
2018-06-01T16:00:06.893Z,101356.02
2018-06-01T16:02:34.487Z,101353.91
2018-06-01T16:05:02.064Z,101360.59
2018-06-01T16:07:29.638Z,101364.55
2018-06-01T16:09:57.222Z,101355.70
2018-06-01T16:12:25.675Z,101357.46
2018-06-01T16:14:53.272Z,101352.80
2018-06-01T16:17:20.910Z,101356.02
2018-06-01T16:19:48.497Z,101351.72
2018-06-01T16:22:16.070Z,101353.16
2018-06-01T16:24:43.646Z,101351.87
2018-06-01T16:27:11.478Z,101346.95
2018-06-01T16:29:39.046Z,101344.26
2018-06-01T16:32:06.645Z,101341.27
2018-06-01T16:34:34.294Z,101334.92
2018-06-01T16:37:01.863Z,101343.08
2018-06-01T16:39:29.446Z,101337.52
2018-06-01T16:41:57.026Z,101337.18
2018-06-01T16:44:24.599Z,101332.34
2018-06-01T16:46:52.217Z,101343.77
2018-06-01T16:49:19.805Z,101332.13
2018-06-01T16:51:47.786Z,101337.77
2018-06-01T16:54:15.382Z,101337.52
2018-06-01T16:56:42.956Z,101331.34
2018-06-01T16:59:10.537Z,101331.78
2018-06-01T17:01:38.150Z,101335.73
2018-06-01T17:04:05.739Z,101330.92
2018-06-01T17:06:33.327Z,101332.95
2018-06-01T17:09:00.904Z,101328.31
2018-06-01T17:11:28.478Z,101328.22
2018-06-01T17:13:56.054Z,101333.48
2018-06-01T17:16:23.661Z,101330.77
2018-06-01T17:18:51.218Z,101315.33
2018-06-01T17:21:18.792Z,101325.46
2018-06-01T17:23:46.479Z,101330.18
2018-06-01T17:26:14.138Z,101325.47
2018-06-01T17:28:41.711Z,101325.41
2018-06-01T17:31:09.450Z,101323.53
2018-06-01T17:33:37.097Z,101321.08
2018-06-01T17:36:04.697Z,101321.61
2018-06-01T17:38:32.282Z,101310.05
2018-06-01T17:41:00.766Z,101320.27
2018-06-01T17:43:28.367Z,101316.38
2018-06-01T17:45:56.171Z,101311.74
2018-06-01T17:48:24.437Z,101317.39
2018-06-01T17:50:52.078Z,101310.39
2018-06-01T17:53:19.673Z,101312.33
2018-06-01T17:55:47.272Z,101309.08
2018-06-01T17:58:14.838Z,101310.53
2018-06-01T18:00:42.424Z,101310.78
2018-06-01T18:03:10.000Z,101307.08
2018-06-01T18:05:37.768Z,101305.24
2018-06-01T18:08:05.374Z,101300.08
2018-06-01T18:10:32.955Z,101296.38
2018-06-01T18:13:00.855Z,101295.52
2018-06-01T18:15:28.442Z,101298.08
2018-06-01T18:17:56.034Z,101290.41
2018-06-01T18:20:23.694Z,101291.16
2018-06-01T18:22:51.302Z,101294.35
2018-06-01T18:25:18.875Z,101290.39
2018-06-01T18:27:46.450Z,101291.49
2018-06-01T18:30:14.071Z,101292.61
2018-06-01T18:32:41.647Z,101294.70
2018-06-01T18:35:09.238Z,101296.39
2018-06-01T18:37:36.814Z,101294.12
2018-06-01T18:40:04.431Z,101288.70
2018-06-01T18:42:32.159Z,101296.39
2018-06-01T18:44:59.753Z,101292.67
2018-06-01T18:47:27.340Z,101303.63
2018-06-01T18:49:54.933Z,101303.91
2018-06-01T18:52:22.519Z,101278.28
2018-06-01T18:54:51.071Z,101280.70
2018-06-01T18:57:18.802Z,101293.20
2018-06-01T18:59:46.382Z,101292.44
2018-06-01T19:02:13.984Z,101297.31
2018-06-01T19:04:43.772Z,101296.12
2018-06-01T19:07:11.507Z,101298.82
2018-06-01T19:09:39.075Z,101296.06
2018-06-01T19:12:06.675Z,101301.03
2018-06-01T19:14:34.277Z,101303.14
2018-06-01T19:17:01.851Z,101299.25
2018-06-01T19:19:29.420Z,101304.52
2018-06-01T19:21:56.988Z,101292.17
2018-06-01T19:24:24.556Z,101304.73
2018-06-01T19:26:52.129Z,101303.75
2018-06-01T19:29:19.710Z,101302.73
2018-06-01T19:31:47.281Z,101303.41
2018-06-01T19:34:14.849Z,101305.38
2018-06-01T19:36:42.434Z,101312.03
2018-06-01T19:39:10.125Z,101305.53
2018-06-01T19:41:37.706Z,101311.50
2018-06-01T19:44:05.293Z,101316.75
2018-06-01T19:46:32.858Z,101309.91
2018-06-01T19:49:00.431Z,101318.00
2018-06-01T19:51:28.004Z,101310.33
2018-06-01T19:53:55.574Z,101311.92
2018-06-01T19:56:23.153Z,101297.23
2018-06-01T19:58:50.714Z,101320.23
2018-06-01T20:01:18.281Z,101313.31
2018-06-01T20:03:45.862Z,101310.03
2018-06-01T20:06:13.434Z,101306.80
2018-06-01T20:08:41.016Z,101301.68
2018-06-01T20:11:08.602Z,101304.28
2018-06-01T20:13:36.183Z,101307.80
2018-06-01T20:16:03.773Z,101305.28
2018-06-01T20:18:31.347Z,101302.39
2018-06-01T20:20:58.910Z,101302.48
2018-06-01T20:23:26.488Z,101279.38
2018-06-01T20:25:54.077Z,101302.03
2018-06-01T20:28:21.679Z,101301.34
2018-06-01T20:30:49.252Z,101301.48
2018-06-01T20:33:16.817Z,101303.02
2018-06-01T20:35:44.377Z,101305.03
2018-06-01T20:38:11.942Z,101309.66
2018-06-01T20:40:39.672Z,101304.93
2018-06-01T20:43:07.275Z,101311.59
2018-06-01T20:45:34.900Z,101308.80
2018-06-01T20:48:02.437Z,101313.97
2018-06-01T20:50:30.036Z,101311.33
2018-06-01T20:52:57.603Z,101313.69
2018-06-01T20:55:25.254Z,101313.61
2018-06-01T20:57:52.831Z,101315.80
2018-06-01T21:00:20.409Z,101308.36
2018-06-01T21:02:47.978Z,101313.41
2018-06-01T21:05:15.551Z,101308.73
2018-06-01T21:07:43.142Z,101310.60
2018-06-01T21:10:10.710Z,101312.09
2018-06-01T21:12:38.277Z,101312.38
2018-06-01T21:15:05.854Z,101310.93
2018-06-01T21:17:33.442Z,101318.06
2018-06-01T21:20:01.019Z,101315.44
2018-06-01T21:22:28.598Z,101305.98
2018-06-01T21:24:56.176Z,101311.42
2018-06-01T21:27:23.754Z,101307.41
2018-06-01T21:29:51.318Z,101312.27
2018-06-01T21:32:18.910Z,101318.88
2018-06-01T21:34:46.504Z,101297.50
2018-06-01T21:37:14.068Z,101312.46
2018-06-01T21:39:41.635Z,101310.27
2018-06-01T21:42:09.250Z,101314.92
2018-06-01T21:44:36.832Z,101314.45
2018-06-01T21:47:04.420Z,101311.11
2018-06-01T21:49:32.016Z,101309.34
2018-06-01T21:51:59.578Z,101313.20
2018-06-01T21:54:27.149Z,101315.06
2018-06-01T21:56:54.714Z,101314.58
2018-06-01T21:59:22.270Z,101313.23
2018-06-01T22:01:49.830Z,101308.31
2018-06-01T22:04:17.403Z,101309.89
2018-06-01T22:06:44.987Z,101314.06
2018-06-01T22:09:12.567Z,101312.41
2018-06-01T22:11:40.150Z,101313.68
2018-06-01T22:14:07.713Z,101313.11
2018-06-01T22:16:35.289Z,101314.47
2018-06-01T22:19:02.856Z,101311.76
2018-06-01T22:21:30.449Z,101317.30
2018-06-01T22:23:58.024Z,101306.41
2018-06-01T22:26:25.595Z,101315.61
2018-06-01T22:28:53.167Z,101320.22
2018-06-01T22:31:20.734Z,101314.09
2018-06-01T22:33:48.299Z,101316.74
2018-06-01T22:36:15.869Z,101325.00
2018-06-01T22:38:43.452Z,101320.74
2018-06-01T22:41:11.049Z,101321.53
2018-06-01T22:43:38.613Z,101319.70
2018-06-01T22:46:06.190Z,101320.47
2018-06-01T22:48:33.789Z,101309.41
2018-06-01T22:51:01.374Z,101320.20
2018-06-01T22:53:28.955Z,101325.78
2018-06-01T22:55:56.555Z,101325.27
2018-06-01T22:58:24.125Z,101318.33
2018-06-01T23:00:51.695Z,101318.14
2018-06-01T23:03:19.256Z,101318.00
2018-06-01T23:05:46.829Z,101314.44
2018-06-01T23:08:14.408Z,101303.98
2018-06-01T23:10:42.004Z,101313.56
2018-06-01T23:13:09.584Z,101317.05
2018-06-01T23:15:37.157Z,101314.44
2018-06-01T23:18:04.758Z,101311.31
2018-06-01T23:20:32.326Z,101311.06
2018-06-01T23:22:59.906Z,101299.11
2018-06-01T23:25:27.487Z,101315.80
2018-06-01T23:27:55.074Z,101322.48
2018-06-01T23:30:22.654Z,101316.52
2018-06-01T23:32:50.268Z,101320.29
2018-06-01T23:35:17.834Z,101317.03
2018-06-01T23:37:45.423Z,101318.29
2018-06-01T23:40:12.990Z,101315.90
2018-06-01T23:42:40.572Z,101313.50
2018-06-01T23:45:08.139Z,101317.05
2018-06-01T23:47:35.734Z,101319.09
2018-06-01T23:50:03.304Z,101314.00
2018-06-01T23:52:30.870Z,101324.25
2018-06-01T23:54:58.440Z,101313.60
2018-06-01T23:57:26.007Z,101333.98
2018-06-01T23:59:53.571Z,101335.39
